Titusville, FL

3:58 AM EST on February 10, 2016 (GMT -0500)
Spring Valley | | Change Station
CLOSE
Current Station
Personal Weather Station
Location: Titusville, FL
Elevation: 39 ft
Nearby Weather Stations
Active Advisory: Lake Wind Advisory

Elev 39 ft 28.57 °N, 80.83 °W | Updated 15 seconds ago

Mostly Cloudy
Mostly Cloudy
42.6 °F
Feels Like 43 °F
N
0.9
Wind Variable Wind from WNW
Gusts 2.5 mph

Today
High -- | Low -- °F
--% Chance of Precip.
Yesterday
High -- | Low -- °F
Precip. -- in
Pressure 30.12 in
Visibility 10.0 miles
Clouds Clear
Windchill 43 °F
Dew Point 34 °F
Humidity 71%
Rainfall 0.00 in
Snow Depth Not available.
7:05 AM 6:09 PM
Waxing Crescent, 4% visible
METAR KTTS 100758Z AUTO 30005KT 10SM CLR 07/00 A3010 RMK AO2 SLP197 T00720004
Pressure 30.12 in
Visibility 10.0 miles
Clouds Clear
Windchill 43 °F
Dew Point 34 °F
Humidity 71%
Rainfall 0.00 in
Snow Depth Not available.
7:05 AM 6:09 PM
Waxing Crescent, 4% visible
METAR KTTS 100758Z AUTO 30005KT 10SM CLR 07/00 A3010 RMK AO2 SLP197 T00720004

10-Day Weather Forecast

Almanac

Astronomy

Feb. 10, 2016 Rise Set
Actual Time
Civil Twilight
Nautical Twilight
Astronomical Twilight
Moon
Length of Visible Light
Length of Day
Tomorrow will be .
, % of the Moon is Illuminated

Today's Extremes

State Highs State Lows

Community

WunderPhotos

Upload Photos

1,891,826 photos uploaded!

WunderBlog® & News

Nearby

Air Quality

  Air Quality AQ Index Pollutant
Not available.

Snow Depth

Station Depth Elevation

Earthquake Activity

City Distance Mag. Time & Date
Minimum magnitude displayed is 2.5.

Coastal Water Temperatures

Place Temperature

Stations

Nearby Weather Stations

Station Location Temp. Windchill Dew Point Humidity Wind Precip. Elev Updated Type
                   

Watches & Warnings

Lake Wind Advisory
Issued: 3:40 AM EST Feb. 10, 2016 – National Weather Service

... Lake Wind Advisory in effect from noon today to 6 PM EST this
evening...

The National Weather Service in Melbourne has issued a lake Wind
Advisory... which is in effect from noon today to 6 PM EST this
evening.

* Winds... increasing to 20 mph out of the west to northwest this
afternoon with gusts to around 30 mph.

* Impacts... choppy conditions on Open Lakes and other larger
bodies of water will make operation of small boats potentially
hazardous.

Precautionary/preparedness actions...

A lake Wind Advisory indicates that winds will cause rough chop
on area lakes. Small boats will be especially prone to capsizing.